Time;durP1;ratioP1;P1;durP2;ratioP2;P2;SDS_P1;SDS_P2;PMS_P1;PMS_P2;Temp;Humidity;BMP_temperature;BMP_pressure;BME280_temperature;BME280_humidity;BME280_pressure;Samples;Min_cycle;Max_cycle;Signal;HPM_P1;HPM_P2
2022/09/22 00:01:08;;;;;;;;;;;;;;;9.28;81.33;100763.41;5056517;28;19909;-89
2022/09/22 00:03:34;;;;;;;;;;;;;;;9.24;80.16;100754.88;5057531;28;19908;-89
2022/09/22 00:06:19;;;;;;;;;;;;;;;9.14;81.81;100760.03;5056769;28;20004;-89
2022/09/22 00:08:47;;;;;;;;;;;;;;;8.92;82.91;100757.81;5056770;28;19916;-89
2022/09/22 00:11:17;;;;;;;;;;;;;;;8.82;82.44;100761.94;5056739;28;19909;-89
2022/09/22 00:13:47;;;;;;;;;;;;;;;8.98;82.86;100754.19;5057208;28;19954;-89
2022/09/22 00:16:13;;;;;;;;;;;;;;;9.08;82.81;100761.81;5056637;28;19996;-90
2022/09/22 00:18:38;;;;;;;;;;;;;;;9.48;81.50;100754.13;5056744;28;19960;-90
2022/09/22 00:21:08;;;;;;;;;;;;;;;9.36;80.66;100751.38;5056769;28;20320;-90
2022/09/22 00:23:33;;;;;;;;;;;;;;;9.24;80.72;100752.16;5057037;28;19972;-90
2022/09/22 00:26:02;;;;;;;;;;;;;;;9.26;81.25;100757.38;5056664;28;20012;-90
2022/09/22 00:28:27;;;;;;;;;;;;;;;9.16;82.73;100758.75;5056934;28;19912;-90
2022/09/22 00:30:53;;;;;;;;;;;;;;;8.82;83.14;100742.06;5056388;28;20265;-90
2022/09/22 00:33:18;;;;;;;;;;;;;;;8.85;82.98;100756.03;5056074;28;20345;-90
2022/09/22 00:35:43;;;;;;;;;;;;;;;8.78;82.58;100752.56;5056310;28;19909;-90
2022/09/22 00:38:08;;;;;;;;;;;;;;;8.84;81.70;100751.66;5056072;28;19993;-90
2022/09/22 00:40:34;;;;;;;;;;;;;;;8.81;83.68;100753.97;5056311;28;19908;-90
2022/09/22 00:43:12;;;;;;;;;;;;;;;8.87;83.23;100755.78;5056304;28;19909;-90
2022/09/22 00:45:37;;;;;;;;;;;;;;;8.93;82.64;100760.31;5056328;28;19912;-90
2022/09/22 00:48:02;;;;;;;;;;;;;;;8.72;82.97;100748.88;5056354;28;19909;-90
2022/09/22 00:50:28;;;;;;;;;;;;;;;9.02;82.08;100749.94;5056057;28;20345;-89
2022/09/22 00:53:03;;;;;;;;;;;;;;;8.85;82.38;100747.88;5055502;28;19967;-90
2022/09/22 00:55:50;;;;;;;;;;;;;;;8.79;83.68;100748.78;5055796;28;19908;-90
2022/09/22 00:58:18;;;;;;;;;;;;;;;8.72;84.49;100738.00;5056051;28;19909;-90
2022/09/22 01:00:43;;;;;;;;;;;;;;;8.99;82.21;100729.47;5055618;28;20003;-90
2022/09/22 01:03:11;;;;;;;;;;;;;;;9.23;82.52;100726.84;5055754;28;19908;-90
2022/09/22 01:05:38;;;;;;;;;;;;;;;9.30;81.46;100734.06;5056002;28;20315;-90
2022/09/22 01:08:04;;;;;;;;;;;;;;;9.10;81.34;100732.47;5055782;28;19909;-90
2022/09/22 01:10:29;;;;;;;;;;;;;;;9.07;82.38;100724.78;5055521;28;20003;-90
2022/09/22 01:12:54;;;;;;;;;;;;;;;9.26;80.54;100725.53;5055511;28;19961;-90
2022/09/22 01:15:19;;;;;;;;;;;;;;;9.09;80.31;100720.75;5055583;28;19962;-89
2022/09/22 01:17:49;;;;;;;;;;;;;;;8.87;81.72;100725.88;5055521;28;19991;-90
2022/09/22 01:20:29;;;;;;;;;;;;;;;8.92;81.74;100715.16;5055737;28;19909;-90
2022/09/22 01:23:17;;;;;;;;;;;;;;;9.07;82.04;100719.34;5055009;28;19915;-89
2022/09/22 01:25:57;;;;;;;;;;;;;;;8.78;81.70;100719.09;5045197;28;19919;-90
2022/09/22 01:28:22;;;;;;;;;;;;;;;8.78;81.08;100713.66;5055689;28;20400;-90
2022/09/22 01:30:55;;;;;;;;;;;;;;;8.95;81.17;100713.88;5055473;28;19935;-90
2022/09/22 01:33:23;;;;;;;;;;;;;;;8.82;80.58;100701.28;5055915;28;19908;-90
2022/09/22 01:35:59;;;;;;;;;;;;;;;8.81;80.21;100705.03;5056137;28;19908;-90
2022/09/22 01:38:29;;;;;;;;;;;;;;;9.02;79.92;100697.44;5055790;28;19991;-90
2022/09/22 01:40:54;;;;;;;;;;;;;;;8.83;81.30;100700.19;5055232;28;19915;-90
2022/09/22 01:43:35;;;;;;;;;;;;;;;8.94;81.52;100698.59;5055783;28;19935;-90
2022/09/22 01:46:04;;;;;;;;;;;;;;;9.17;79.90;100695.09;5055489;28;20008;-90
2022/09/22 01:48:32;;;;;;;;;;;;;;;9.22;79.89;100697.13;5055279;28;20356;-90
2022/09/22 01:51:17;;;;;;;;;;;;;;;9.15;79.99;100691.81;5054849;28;19920;-91
2022/09/22 01:53:46;;;;;;;;;;;;;;;9.30;79.86;100694.09;5054953;28;20317;-90
2022/09/22 01:56:12;;;;;;;;;;;;;;;9.17;79.84;100695.09;5054741;28;19990;-90
2022/09/22 01:58:40;;;;;;;;;;;;;;;8.98;80.91;100692.47;5054892;28;19975;-90
2022/09/22 02:01:08;;;;;;;;;;;;;;;9.10;80.21;100688.94;5054776;28;19909;-90
2022/09/22 02:03:40;;;;;;;;;;;;;;;9.05;79.69;100686.09;5054980;28;19909;-90
2022/09/22 02:06:09;;;;;;;;;;;;;;;8.95;80.35;100687.47;5055078;28;20362;-90
2022/09/22 02:08:49;;;;;;;;;;;;;;;9.21;79.27;100682.69;5054746;28;19938;-90
2022/09/22 02:11:15;;;;;;;;;;;;;;;9.19;80.17;100681.28;5054804;28;19934;-90
2022/09/22 02:13:40;;;;;;;;;;;;;;;9.50;78.90;100675.78;5054783;28;19999;-90
2022/09/22 02:16:06;;;;;;;;;;;;;;;9.64;78.25;100676.38;5055140;28;19989;-89
2022/09/22 02:18:44;;;;;;;;;;;;;;;9.67;77.69;100670.47;5055220;28;20334;-90
2022/09/22 02:21:10;;;;;;;;;;;;;;;9.73;77.93;100674.13;5056289;28;19970;-89
2022/09/22 02:23:35;;;;;;;;;;;;;;;9.79;77.27;100674.00;5056213;28;20395;-89
2022/09/22 02:26:01;;;;;;;;;;;;;;;9.75;77.11;100670.09;5054756;28;19908;-89
2022/09/22 02:28:27;;;;;;;;;;;;;;;9.87;77.68;100678.28;5055117;28;19908;-90
2022/09/22 02:30:54;;;;;;;;;;;;;;;9.90;77.20;100674.25;5054953;28;19975;-89
2022/09/22 02:33:21;;;;;;;;;;;;;;;10.13;76.29;100676.09;5054421;28;19915;-89
2022/09/22 02:35:49;;;;;;;;;;;;;;;10.08;75.86;100669.72;5058192;28;19909;-89
2022/09/22 02:38:18;;;;;;;;;;;;;;;9.95;76.00;100676.25;5058223;28;19909;-89
2022/09/22 02:41:02;;;;;;;;;;;;;;;10.00;76.39;100665.47;5058371;28;20008;-89
2022/09/22 02:43:46;;;;;;;;;;;;;;;10.15;75.22;100671.25;5058508;28;19912;-89
2022/09/22 02:46:34;;;;;;;;;;;;;;;10.20;74.23;100666.97;5058799;28;19920;-89
2022/09/22 02:49:01;;;;;;;;;;;;;;;10.21;75.68;100668.66;5057334;28;19952;-89
2022/09/22 02:51:27;;;;;;;;;;;;;;;10.04;75.05;100663.94;5058839;28;19909;-89
2022/09/22 02:53:53;;;;;;;;;;;;;;;10.14;75.39;100660.59;5058495;28;19920;-89
2022/09/22 02:56:18;;;;;;;;;;;;;;;10.15;74.42;100657.63;5058196;28;20366;-89
2022/09/22 02:58:43;;;;;;;;;;;;;;;10.14;75.11;100666.03;5057804;28;19956;-90
2022/09/22 03:01:08;;;;;;;;;;;;;;;10.09;75.63;100658.59;5057659;28;19995;-90
2022/09/22 03:03:33;;;;;;;;;;;;;;;10.11;74.95;100656.44;5058172;28;20342;-90
2022/09/22 03:05:58;;;;;;;;;;;;;;;10.08;76.13;100653.38;5058499;28;19916;-89
2022/09/22 03:08:24;;;;;;;;;;;;;;;10.11;75.70;100652.91;5057617;28;19912;-89
2022/09/22 03:10:49;;;;;;;;;;;;;;;9.92;76.37;100647.59;5055968;28;19919;-90
2022/09/22 03:13:14;;;;;;;;;;;;;;;9.98;76.38;100651.25;5058486;28;19908;-88
2022/09/22 03:15:39;;;;;;;;;;;;;;;9.80;75.71;100645.69;5057689;28;19932;-89
2022/09/22 03:18:04;;;;;;;;;;;;;;;9.60;77.13;100642.53;5057423;28;19916;-89
2022/09/22 03:20:30;;;;;;;;;;;;;;;9.63;77.54;100637.44;5058246;28;20004;-89
2022/09/22 03:22:55;;;;;;;;;;;;;;;9.57;77.33;100641.94;5056302;28;19959;-90
2022/09/22 03:25:20;;;;;;;;;;;;;;;9.45;77.78;100641.94;5058333;28;19940;-89
2022/09/22 03:27:46;;;;;;;;;;;;;;;9.47;78.37;100641.69;5057628;28;20002;-89
2022/09/22 03:30:12;;;;;;;;;;;;;;;9.17;77.97;100639.88;5058176;28;19954;-89
2022/09/22 03:32:37;;;;;;;;;;;;;;;8.99;79.14;100645.16;5057433;28;19912;-89
2022/09/22 03:35:03;;;;;;;;;;;;;;;9.06;79.27;100639.63;5057401;28;19912;-89
2022/09/22 03:37:28;;;;;;;;;;;;;;;9.02;79.61;100637.59;5058627;28;19908;-89
2022/09/22 03:39:53;;;;;;;;;;;;;;;9.03;79.94;100636.53;5057201;28;19970;-90
2022/09/22 03:42:18;;;;;;;;;;;;;;;9.15;79.24;100636.56;5057143;28;19916;-90
2022/09/22 03:44:43;;;;;;;;;;;;;;;9.26;78.47;100637.63;5057678;28;19909;-89
2022/09/22 03:47:09;;;;;;;;;;;;;;;9.25;78.25;100630.56;5056449;28;19940;-90
2022/09/22 03:49:34;;;;;;;;;;;;;;;9.15;78.47;100634.69;5057111;28;19943;-89
2022/09/22 03:51:59;;;;;;;;;;;;;;;8.99;79.25;100637.00;5057054;28;19913;-89
2022/09/22 03:54:25;;;;;;;;;;;;;;;8.92;79.37;100630.00;5056650;28;19955;-89
2022/09/22 03:56:50;;;;;;;;;;;;;;;8.64;79.41;100627.66;5057408;28;19915;-89
2022/09/22 03:59:15;;;;;;;;;;;;;;;8.67;79.56;100637.25;5057284;28;19909;-89
2022/09/22 04:01:41;;;;;;;;;;;;;;;8.72;80.21;100631.97;5056990;28;19991;-89
2022/09/22 04:04:06;;;;;;;;;;;;;;;8.50;79.43;100631.63;5057424;28;19908;-89
2022/09/22 04:06:32;;;;;;;;;;;;;;;8.53;80.07;100623.81;5056639;28;19908;-90
2022/09/22 04:08:57;;;;;;;;;;;;;;;8.60;80.46;100620.22;5056686;28;19920;-89
2022/09/22 04:11:23;;;;;;;;;;;;;;;8.31;81.23;100618.03;5056323;28;19909;-90
2022/09/22 04:13:48;;;;;;;;;;;;;;;8.22;82.32;100625.66;5056960;28;19909;-89
2022/09/22 04:16:13;;;;;;;;;;;;;;;8.24;81.69;100625.44;5056505;28;20003;-90
2022/09/22 04:18:39;;;;;;;;;;;;;;;8.21;81.41;100626.75;5056542;28;19908;-90
2022/09/22 04:21:04;;;;;;;;;;;;;;;8.35;80.63;100618.41;5056543;28;19955;-89
2022/09/22 04:23:30;;;;;;;;;;;;;;;8.38;80.96;100618.78;5056925;28;20011;-89
2022/09/22 04:25:55;;;;;;;;;;;;;;;8.60;80.02;100614.78;5057004;28;19909;-89
2022/09/22 04:28:20;;;;;;;;;;;;;;;8.55;79.49;100614.59;5056323;28;19908;-89
2022/09/22 04:30:46;;;;;;;;;;;;;;;8.55;80.30;100611.88;5056439;28;20015;-89
2022/09/22 04:33:11;;;;;;;;;;;;;;;8.45;80.43;100613.25;5056425;28;19931;-89
2022/09/22 04:35:36;;;;;;;;;;;;;;;8.10;80.63;100614.75;5056569;28;19934;-89
2022/09/22 04:38:02;;;;;;;;;;;;;;;8.22;80.40;100620.22;5055882;28;19909;-89
2022/09/22 04:40:28;;;;;;;;;;;;;;;8.48;80.83;100612.00;5056175;28;19912;-88
2022/09/22 04:42:53;;;;;;;;;;;;;;;8.62;79.13;100608.03;5056510;28;20292;-89
2022/09/22 04:45:18;;;;;;;;;;;;;;;8.83;78.66;100616.75;5056811;28;19966;-89
2022/09/22 04:47:44;;;;;;;;;;;;;;;8.75;78.70;100617.06;5056333;28;19909;-89
2022/09/22 04:50:10;;;;;;;;;;;;;;;8.39;80.20;100612.31;5055222;28;19958;-89
2022/09/22 04:52:35;;;;;;;;;;;;;;;8.57;79.60;100617.94;5055790;28;19932;-89
2022/09/22 04:55:00;;;;;;;;;;;;;;;8.55;79.06;100614.59;5055537;28;19915;-89
2022/09/22 04:57:26;;;;;;;;;;;;;;;8.52;79.86;100615.91;5055968;28;19999;-88
2022/09/22 04:59:51;;;;;;;;;;;;;;;8.43;79.38;100620.81;5055920;28;20358;-89
2022/09/22 05:02:16;;;;;;;;;;;;;;;8.26;80.48;100621.44;5055911;28;19913;-89
2022/09/22 05:04:41;;;;;;;;;;;;;;;8.28;80.53;100616.59;5055267;28;20384;-89
2022/09/22 05:07:06;;;;;;;;;;;;;;;8.51;80.02;100619.66;5055453;28;20003;-89
2022/09/22 05:09:32;;;;;;;;;;;;;;;8.44;79.50;100627.91;5055365;28;20246;-89
2022/09/22 05:11:58;;;;;;;;;;;;;;;8.32;80.22;100624.31;5055723;28;20328;-89
2022/09/22 05:14:23;;;;;;;;;;;;;;;8.51;79.83;100627.81;5055706;28;19962;-89
2022/09/22 05:16:48;;;;;;;;;;;;;;;8.56;80.03;100629.84;5055265;28;19912;-89
2022/09/22 05:19:14;;;;;;;;;;;;;;;8.65;79.02;100639.38;5055417;28;19908;-90
2022/09/22 05:21:39;;;;;;;;;;;;;;;8.61;79.69;100624.56;5055610;28;20357;-89
2022/09/22 05:24:04;;;;;;;;;;;;;;;8.57;79.61;100626.09;5055180;28;19908;-89
2022/09/22 05:26:29;;;;;;;;;;;;;;;8.56;79.36;100624.41;5055299;28;19909;-89
2022/09/22 05:28:56;;;;;;;;;;;;;;;8.53;79.66;100625.69;5055284;28;19933;-89
2022/09/22 05:31:21;;;;;;;;;;;;;;;8.55;79.89;100630.91;5055774;28;19944;-88
2022/09/22 05:33:46;;;;;;;;;;;;;;;8.68;79.63;100621.78;5055407;28;20380;-89
2022/09/22 05:36:11;;;;;;;;;;;;;;;8.69;79.09;100624.25;5055458;28;20372;-89
2022/09/22 05:38:36;;;;;;;;;;;;;;;8.45;79.42;100626.84;5055111;28;19948;-89
2022/09/22 05:41:02;;;;;;;;;;;;;;;8.33;80.17;100626.81;5054652;28;19916;-89
2022/09/22 05:43:27;;;;;;;;;;;;;;;8.46;80.77;100631.22;5055326;28;19909;-89
2022/09/22 05:45:53;;;;;;;;;;;;;;;8.36;80.43;100623.63;5055099;28;19935;-89
2022/09/22 05:48:18;;;;;;;;;;;;;;;8.44;80.93;100622.47;5054805;28;20316;-89
2022/09/22 05:50:44;;;;;;;;;;;;;;;8.56;80.43;100630.69;5055658;28;19936;-89
2022/09/22 05:53:10;;;;;;;;;;;;;;;8.72;79.92;100634.69;5055578;28;19908;-89
2022/09/22 05:55:36;;;;;;;;;;;;;;;8.81;79.91;100626.19;5055585;28;19968;-89
2022/09/22 05:58:01;;;;;;;;;;;;;;;8.78;80.36;100622.06;5055258;28;19975;-89
2022/09/22 06:00:27;;;;;;;;;;;;;;;8.93;80.51;100631.69;5054632;28;19959;-89
2022/09/22 06:02:53;;;;;;;;;;;;;;;8.72;79.91;100628.41;5054899;28;19909;-89
2022/09/22 06:05:18;;;;;;;;;;;;;;;8.86;80.02;100635.31;5055597;28;19908;-90
2022/09/22 06:07:44;;;;;;;;;;;;;;;9.02;79.67;100633.00;5054737;28;19976;-89
2022/09/22 06:10:10;;;;;;;;;;;;;;;8.84;79.84;100636.59;5058373;28;19961;-90
2022/09/22 06:12:35;;;;;;;;;;;;;;;8.84;80.28;100639.31;5063008;28;20222;-90
2022/09/22 06:15:01;;;;;;;;;;;;;;;8.81;80.25;100637.06;5062323;28;19923;-89
2022/09/22 06:17:26;;;;;;;;;;;;;;;8.89;80.71;100639.44;5061418;28;20351;-89
2022/09/22 06:19:51;;;;;;;;;;;;;;;8.92;80.51;100643.59;5061451;28;20003;-89
2022/09/22 06:22:17;;;;;;;;;;;;;;;8.86;81.77;100642.66;5061168;28;19913;-89
2022/09/22 06:24:42;;;;;;;;;;;;;;;9.18;80.75;100631.47;5061503;28;20338;-89
2022/09/22 06:27:07;;;;;;;;;;;;;;;9.49;79.55;100636.00;5061124;28;19935;-89
2022/09/22 06:29:33;;;;;;;;;;;;;;;9.45;79.77;100635.66;5061810;28;19959;-89
2022/09/22 06:31:58;;;;;;;;;;;;;;;9.46;80.29;100638.13;5061876;28;19914;-90
2022/09/22 06:34:24;;;;;;;;;;;;;;;9.41;80.13;100634.47;5061409;28;19912;-90
2022/09/22 06:36:50;;;;;;;;;;;;;;;9.46;80.27;100632.69;5061686;28;19912;-90
2022/09/22 06:39:15;;;;;;;;;;;;;;;9.64;79.91;100636.34;5061374;28;20379;-90
2022/09/22 06:41:43;;;;;;;;;;;;;;;9.92;78.14;100643.00;5061618;28;19916;-91
2022/09/22 06:44:11;;;;;;;;;;;;;;;10.05;77.68;100638.31;5061274;28;19909;-90
2022/09/22 06:46:37;;;;;;;;;;;;;;;10.17;75.73;100643.75;5061358;28;19923;-90
2022/09/22 06:49:03;;;;;;;;;;;;;;;10.21;76.02;100639.47;5061253;28;19909;-90
2022/09/22 06:51:31;;;;;;;;;;;;;;;10.22;75.49;100645.75;5060855;28;19954;-90
2022/09/22 06:53:57;;;;;;;;;;;;;;;10.34;75.38;100635.66;5061701;28;19912;-90
2022/09/22 06:56:24;;;;;;;;;;;;;;;10.40;75.36;100636.59;5059941;28;19958;-89
2022/09/22 06:58:49;;;;;;;;;;;;;;;10.47;75.77;100642.75;5061217;28;19909;-91
2022/09/22 07:01:15;;;;;;;;;;;;;;;10.49;74.93;100642.53;5061662;28;19916;-88
2022/09/22 07:03:41;;;;;;;;;;;;;;;10.51;74.52;100645.84;5060883;28;19916;-89
2022/09/22 07:06:08;;;;;;;;;;;;;;;10.51;74.26;100646.66;5061210;28;19928;-88
2022/09/22 07:08:34;;;;;;;;;;;;;;;10.55;74.31;100647.00;5060673;28;20396;-87
2022/09/22 07:11:01;;;;;;;;;;;;;;;10.57;74.30;100647.59;5060962;28;19978;-87
2022/09/22 07:13:30;;;;;;;;;;;;;;;10.56;73.81;100647.81;5060810;28;19909;-87
2022/09/22 07:16:06;;;;;;;;;;;;;;;10.64;73.67;100636.53;5061499;28;19908;-86
2022/09/22 07:18:32;;;;;;;;;;;;;;;10.69;73.94;100635.81;5060890;28;19908;-86
2022/09/22 07:21:00;;;;;;;;;;;;;;;10.76;73.35;100633.75;5059829;28;19919;-87
2022/09/22 07:23:26;;;;;;;;;;;;;;;10.84;73.44;100638.81;5057575;28;19916;-86
2022/09/22 07:25:55;;;;;;;;;;;;;;;10.83;74.08;100631.72;5057691;28;20008;-87
2022/09/22 07:28:21;;;;;;;;;;;;;;;10.86;74.03;100635.84;5056802;28;19940;-87
2022/09/22 07:30:46;;;;;;;;;;;;;;;10.87;74.68;100637.50;5057745;28;19915;-88
2022/09/22 07:33:12;;;;;;;;;;;;;;;10.91;73.89;100633.19;5057025;28;19909;-90
2022/09/22 07:35:37;;;;;;;;;;;;;;;10.98;74.51;100635.78;5058133;28;19913;-88
2022/09/22 07:38:03;;;;;;;;;;;;;;;11.01;73.91;100638.00;5057009;28;19916;-89
2022/09/22 07:40:28;;;;;;;;;;;;;;;11.03;74.63;100627.69;5057379;28;20289;-89
2022/09/22 07:42:53;;;;;;;;;;;;;;;11.07;73.72;100637.03;5058040;28;19923;-91
2022/09/22 07:45:20;;;;;;;;;;;;;;;11.11;74.23;100631.88;5057316;28;19909;-91
2022/09/22 07:50:29;;;;;;;;;;;;;;;11.17;74.50;100638.25;5057746;28;19916;-93
2022/09/22 07:52:55;;;;;;;;;;;;;;;11.22;74.65;100643.81;5057084;28;20349;-93
2022/09/22 07:55:24;;;;;;;;;;;;;;;11.31;73.94;100631.41;5056967;28;20269;-93
2022/09/22 07:57:56;;;;;;;;;;;;;;;11.36;74.21;100635.28;5057196;28;19916;-92
2022/09/22 08:00:22;;;;;;;;;;;;;;;11.33;75.52;100629.25;5056973;28;19915;-93
2022/09/22 08:02:54;;;;;;;;;;;;;;;11.41;74.77;100627.19;5057172;28;20272;-90
2022/09/22 08:05:24;;;;;;;;;;;;;;;11.49;74.75;100626.75;5057227;28;19995;-92
2022/09/22 08:07:49;;;;;;;;;;;;;;;11.55;74.81;100633.13;5057103;28;19916;-92
2022/09/22 08:10:15;;;;;;;;;;;;;;;11.60;74.13;100630.47;5056933;28;19909;-91
2022/09/22 08:12:41;;;;;;;;;;;;;;;11.64;74.89;100628.06;5056973;28;20235;-94
2022/09/22 08:15:07;;;;;;;;;;;;;;;11.67;74.90;100628.38;5057297;28;19915;-91
2022/09/22 08:17:32;;;;;;;;;;;;;;;11.72;75.55;100630.38;5056386;28;19934;-90
2022/09/22 08:20:01;;;;;;;;;;;;;;;11.74;74.78;100630.94;5056275;28;19916;-90
2022/09/22 08:22:27;;;;;;;;;;;;;;;11.78;75.30;100623.91;5056751;28;19916;-91
2022/09/22 08:24:52;;;;;;;;;;;;;;;11.85;75.40;100631.09;5056663;28;19913;-90
2022/09/22 08:27:18;;;;;;;;;;;;;;;11.87;74.74;100623.47;5057178;28;19915;-89
2022/09/22 08:29:45;;;;;;;;;;;;;;;11.90;75.86;100631.16;5056830;28;19923;-89
2022/09/22 08:32:11;;;;;;;;;;;;;;;11.92;75.08;100629.00;5056528;28;20235;-89
2022/09/22 08:34:36;;;;;;;;;;;;;;;12.01;75.73;100624.75;5055978;28;19912;-89
2022/09/22 08:37:02;;;;;;;;;;;;;;;12.05;74.89;100627.81;5056709;28;19912;-89
2022/09/22 08:39:27;;;;;;;;;;;;;;;12.20;73.43;100621.75;5056812;28;20011;-88
2022/09/22 08:42:04;;;;;;;;;;;;;;;12.22;73.87;100630.53;5055776;28;19913;-89
2022/09/22 08:44:51;;;;;;;;;;;;;;;12.34;74.64;100624.09;5056871;28;19908;-89
2022/09/22 08:51:50;;;;;;;;;;;;;;;12.54;72.72;100625.38;5056673;28;19915;-88
2022/09/22 08:53:14;;;;;;;;;;;;;;;12.62;72.91;100630.41;5056609;28;19932;-89
2022/09/22 08:55:42;;;;;;;;;;;;;;;12.70;68.58;100620.91;5055808;28;19954;-87
2022/09/22 08:58:36;;;;;;;;;;;;;;;12.84;69.31;100621.31;5054529;28;19917;-90
2022/09/22 09:01:13;;;;;;;;;;;;;;;12.92;69.01;100622.75;5055303;28;19909;-89
2022/09/22 09:03:38;;;;;;;;;;;;;;;13.02;68.48;100617.38;5055793;28;20395;-86
2022/09/22 09:06:25;;;;;;;;;;;;;;;13.09;68.38;100622.63;5055823;28;19938;-88
2022/09/22 09:08:50;;;;;;;;;;;;;;;13.08;68.48;100632.75;5056154;28;20003;-89
2022/09/22 09:11:30;;;;;;;;;;;;;;;13.13;68.51;100629.25;5055701;28;19952;-89
2022/09/22 09:14:14;;;;;;;;;;;;;;;13.16;68.53;100627.91;5056220;28;19908;-88
2022/09/22 09:16:45;;;;;;;;;;;;;;;13.16;69.52;100627.91;5056132;28;20227;-88
2022/09/22 09:19:15;;;;;;;;;;;;;;;13.17;66.76;100627.63;5055530;28;19909;-89
2022/09/22 09:21:46;;;;;;;;;;;;;;;13.38;66.41;100630.50;5055342;28;20377;-89
2022/09/22 09:24:19;;;;;;;;;;;;;;;13.42;65.60;100619.88;5055837;28;19915;-90
2022/09/22 09:26:45;;;;;;;;;;;;;;;13.40;66.29;100628.34;5055784;28;19923;-88
2022/09/22 09:29:15;;;;;;;;;;;;;;;13.49;64.74;100625.94;5055779;28;19995;-91
2022/09/22 09:34:43;;;;;;;;;;;;;;;13.52;62.92;100625.44;5048661;28;19966;-86
2022/09/22 09:37:13;;;;;;;;;;;;;;;13.63;63.33;100615.38;5055251;28;20015;-89
2022/09/22 09:39:41;;;;;;;;;;;;;;;13.75;64.18;100617.91;5055339;28;19915;-89
2022/09/22 09:42:16;;;;;;;;;;;;;;;13.71;64.17;100613.25;5055271;28;19914;-90
2022/09/22 09:44:42;;;;;;;;;;;;;;;13.86;62.33;100616.06;5054563;28;19909;-92
2022/09/22 09:47:22;;;;;;;;;;;;;;;14.04;59.83;100619.44;5055042;28;20011;-90
2022/09/22 09:49:49;;;;;;;;;;;;;;;14.06;59.55;100617.25;5055687;28;20260;-89
2022/09/22 09:52:14;;;;;;;;;;;;;;;14.24;58.49;100613.19;5055098;28;19912;-89
2022/09/22 09:54:41;;;;;;;;;;;;;;;14.28;58.26;100616.22;5055634;28;20014;-91
2022/09/22 09:57:08;;;;;;;;;;;;;;;14.21;58.88;100610.19;5056322;28;20314;-89
2022/09/22 10:02:41;;;;;;;;;;;;;;;14.32;57.51;100606.38;5055541;28;19915;-89
2022/09/22 10:05:16;;;;;;;;;;;;;;;14.29;56.08;100601.44;5043947;28;19935;-89
2022/09/22 10:07:43;;;;;;;;;;;;;;;14.33;58.67;100596.22;5054884;28;20369;-90
2022/09/22 10:10:22;;;;;;;;;;;;;;;14.66;56.79;100591.38;5053969;28;19916;-87
2022/09/22 10:12:47;;;;;;;;;;;;;;;14.74;55.99;100589.19;5054569;28;20354;-88
2022/09/22 10:15:23;;;;;;;;;;;;;;;14.64;57.65;100588.06;5053794;28;19909;-88
2022/09/22 10:17:48;;;;;;;;;;;;;;;14.62;57.75;100581.22;5055137;28;19915;-90
2022/09/22 10:20:16;;;;;;;;;;;;;;;14.67;56.77;100581.19;5054849;28;19908;-90
2022/09/22 10:22:42;;;;;;;;;;;;;;;14.72;56.39;100573.00;5055468;28;20012;-89
2022/09/22 10:25:18;;;;;;;;;;;;;;;14.79;56.07;100575.44;5054583;28;20011;-89
2022/09/22 10:27:57;;;;;;;;;;;;;;;14.77;57.14;100567.50;5054560;28;20376;-89
2022/09/22 10:30:22;;;;;;;;;;;;;;;14.95;56.98;100576.31;5054119;28;19999;-85
2022/09/22 10:33:02;;;;;;;;;;;;;;;14.86;56.73;100567.81;5055322;28;19944;-91
2022/09/22 10:35:28;;;;;;;;;;;;;;;15.09;55.75;100560.13;5054616;28;19913;-89
2022/09/22 10:37:59;;;;;;;;;;;;;;;14.98;54.70;100563.97;5054643;28;19953;-90
2022/09/22 10:40:26;;;;;;;;;;;;;;;15.13;54.67;100554.91;5054297;28;19915;-90
2022/09/22 10:42:55;;;;;;;;;;;;;;;15.27;54.50;100560.66;5054183;28;19909;-88
2022/09/22 10:45:35;;;;;;;;;;;;;;;15.09;55.01;100557.38;5054432;28;19908;-92
2022/09/22 10:48:06;;;;;;;;;;;;;;;15.09;54.05;100549.13;5055074;28;20365;-92
2022/09/22 10:50:40;;;;;;;;;;;;;;;15.16;53.95;100559.81;5055587;28;20007;-89
2022/09/22 10:53:26;;;;;;;;;;;;;;;15.34;54.82;100555.69;5054505;28;19909;-88
2022/09/22 10:55:51;;;;;;;;;;;;;;;15.44;53.03;100552.06;5055708;28;19909;-89
2022/09/22 10:58:20;;;;;;;;;;;;;;;15.48;54.92;100555.91;5058369;28;20367;-90
2022/09/22 11:00:46;;;;;;;;;;;;;;;15.39;55.14;100552.94;5058641;28;20270;-88
2022/09/22 11:03:30;;;;;;;;;;;;;;;15.49;54.48;100552.09;5057127;28;19913;-88
2022/09/22 11:14:35;;;;;;;;;;;;;;;15.93;49.70;100546.13;5058314;28;19958;-90
2022/09/22 11:17:21;;;;;;;;;;;;;;;15.87;50.80;100546.16;5058102;28;19909;-89
2022/09/22 11:20:03;;;;;;;;;;;;;;;15.92;50.15;100536.25;5058257;28;19908;-90
2022/09/22 11:22:47;;;;;;;;;;;;;;;15.48;50.16;100547.69;5058428;28;19962;-91
2022/09/22 11:25:20;;;;;;;;;;;;;;;15.68;51.73;100545.97;5057432;28;19908;-90
2022/09/22 11:28:05;;;;;;;;;;;;;;;15.69;50.54;100539.38;5057720;28;19912;-89
2022/09/22 11:30:38;;;;;;;;;;;;;;;15.84;50.92;100534.94;5053410;28;19908;-90
2022/09/22 11:33:04;;;;;;;;;;;;;;;15.87;51.23;100535.19;5058163;28;20285;-90
2022/09/22 11:35:32;;;;;;;;;;;;;;;15.90;49.67;100530.22;5058116;28;20007;-89
2022/09/22 11:38:12;;;;;;;;;;;;;;;15.85;50.61;100528.31;5057675;28;19912;-89
2022/09/22 11:40:43;;;;;;;;;;;;;;;15.69;49.70;100527.53;5057129;28;20376;-90
2022/09/22 11:43:27;;;;;;;;;;;;;;;15.74;49.68;100531.09;5058029;28;19951;-89
2022/09/22 11:46:03;;;;;;;;;;;;;;;15.97;49.37;100517.81;5057716;28;19908;-92
2022/09/22 11:48:31;;;;;;;;;;;;;;;15.99;50.44;100515.59;5056652;28;19909;-93
2022/09/22 11:51:04;;;;;;;;;;;;;;;15.98;49.69;100511.22;5057405;28;19918;-92
2022/09/22 11:53:39;;;;;;;;;;;;;;;16.04;50.02;100520.28;5056459;28;20341;-92
2022/09/22 11:56:17;;;;;;;;;;;;;;;16.32;47.64;100523.41;5057174;28;20296;-91
2022/09/22 11:58:43;;;;;;;;;;;;;;;16.49;47.72;100513.94;5057591;28;19956;-92
2022/09/22 12:01:12;;;;;;;;;;;;;;;16.73;45.04;100504.13;5057183;28;19954;-92
2022/09/22 12:03:40;;;;;;;;;;;;;;;16.60;45.98;100500.91;5056602;28;19912;-93
2022/09/22 12:06:14;;;;;;;;;;;;;;;16.40;45.95;100491.72;5057010;28;19916;-89
2022/09/22 12:08:45;;;;;;;;;;;;;;;16.06;48.95;100501.56;5056435;28;19916;-91
2022/09/22 12:11:12;;;;;;;;;;;;;;;15.60;50.27;100489.66;5057343;28;19909;-91
2022/09/22 12:13:41;;;;;;;;;;;;;;;15.47;50.33;100488.34;5056744;28;19908;-91
2022/09/22 12:16:29;;;;;;;;;;;;;;;15.86;49.96;100489.53;5056744;28;19908;-92
2022/09/22 12:18:58;;;;;;;;;;;;;;;16.07;48.28;100480.38;5057374;28;19999;-92
2022/09/22 12:21:26;;;;;;;;;;;;;;;16.24;47.34;100471.75;5056842;28;19909;-93
2022/09/22 12:23:52;;;;;;;;;;;;;;;16.41;47.75;100470.53;5056497;28;19962;-91
2022/09/22 12:26:25;;;;;;;;;;;;;;;16.57;47.10;100468.47;5056742;28;19912;-91
2022/09/22 12:28:50;;;;;;;;;;;;;;;16.75;47.23;100466.09;5056652;28;20353;-91
2022/09/22 12:31:17;;;;;;;;;;;;;;;16.73;45.98;100460.91;5056728;28;19912;-94
2022/09/22 12:33:46;;;;;;;;;;;;;;;16.77;46.59;100464.72;5056715;28;19954;-92
2022/09/22 12:36:12;;;;;;;;;;;;;;;16.68;45.89;100452.66;5056250;28;20060;-94
2022/09/22 12:38:38;;;;;;;;;;;;;;;16.65;46.02;100458.78;5056381;28;19909;-92
2022/09/22 12:41:03;;;;;;;;;;;;;;;16.56;46.27;100451.13;5055999;28;19915;-93
2022/09/22 12:43:30;;;;;;;;;;;;;;;16.45;47.58;100449.59;5056379;28;19909;-91
2022/09/22 12:46:11;;;;;;;;;;;;;;;16.88;46.06;100448.09;5056455;28;19908;-90
2022/09/22 12:48:37;;;;;;;;;;;;;;;17.04;45.11;100443.25;5056791;28;20273;-92
2022/09/22 12:51:20;;;;;;;;;;;;;;;16.81;44.79;100440.16;5055918;28;19908;-91
2022/09/22 12:53:46;;;;;;;;;;;;;;;16.76;45.16;100438.28;5056165;28;19951;-92
2022/09/22 12:56:29;;;;;;;;;;;;;;;16.85;46.19;100435.72;5055638;28;20265;-91
2022/09/22 12:58:55;;;;;;;;;;;;;;;16.89;44.67;100433.22;5056015;28;19955;-93
2022/09/22 13:01:27;;;;;;;;;;;;;;;16.82;45.84;100435.50;5055568;28;19948;-90
2022/09/22 13:04:02;;;;;;;;;;;;;;;16.80;46.49;100433.84;5057288;28;19983;-93
2022/09/22 13:06:27;;;;;;;;;;;;;;;16.64;46.99;100437.84;5057418;28;20369;-93
2022/09/22 13:08:52;;;;;;;;;;;;;;;16.65;46.79;100432.06;5056342;28;19908;-89